Time;durP1;ratioP1;P1;durP2;ratioP2;P2;SDS_P1;SDS_P2;PMS_P1;PMS_P2;Temp;Humidity;BMP_temperature;BMP_pressure;BME280_temperature;BME280_humidity;BME280_pressure;Samples;Min_cycle;Max_cycle;Signal;HPM_P1;HPM_P2
2021/09/04 00:01:44;;;;;;;10.50;8.20;;;;;;;15.59;100.00;100464.88;5004808;28;20044;-68
2021/09/04 00:04:28;;;;;;;14.15;8.75;;;;;;;15.61;100.00;100464.72;5004807;28;20048;-68
2021/09/04 00:07:12;;;;;;;13.50;8.18;;;;;;;15.60;100.00;100461.19;5018345;28;20584;-68
2021/09/04 00:09:56;;;;;;;12.20;8.30;;;;;;;15.59;100.00;100464.88;5018972;28;20136;-68
2021/09/04 00:12:41;;;;;;;11.98;7.95;;;;;;;15.61;100.00;100464.72;5033320;28;20052;-69
2021/09/04 00:15:26;;;;;;;14.32;8.07;;;;;;;15.58;100.00;100469.41;5033243;28;20052;-67
2021/09/04 00:18:10;;;;;;;12.57;7.70;;;;;;;15.57;100.00;100471.44;5018737;28;20132;-68
2021/09/04 00:20:54;;;;;;;13.32;7.90;;;;;;;15.57;100.00;100460.69;5033318;28;20044;-69
2021/09/04 00:23:37;;;;;;;10.45;7.72;;;;;;;15.55;100.00;100462.69;5033190;28;20048;-67
2021/09/04 00:26:24;;;;;;;9.65;7.85;;;;;;;15.54;100.00;100466.41;5033500;28;20129;-68
2021/09/04 00:29:08;;;;;;;9.60;7.70;;;;;;;15.53;100.00;100464.72;5033072;28;20052;-68
2021/09/04 00:31:52;;;;;;;9.07;7.72;;;;;;;15.50;100.00;100475.81;5033201;28;20099;-68
2021/09/04 00:34:36;;;;;;;12.00;7.80;;;;;;;15.46;100.00;100471.78;5033271;28;20048;-69
2021/09/04 00:37:20;;;;;;;14.63;7.65;;;;;;;15.42;100.00;100470.47;5033489;28;20107;-68
2021/09/04 00:40:06;;;;;;;11.38;7.70;;;;;;;15.40;100.00;100464.44;5017954;28;20523;-67
2021/09/04 00:42:50;;;;;;;12.15;7.72;;;;;;;15.30;100.00;100467.28;5005959;28;20404;-68
2021/09/04 00:45:34;;;;;;;13.05;8.32;;;;;;;15.29;100.00;100462.06;5022218;28;20111;-68
2021/09/04 00:48:18;;;;;;;11.85;7.75;;;;;;;15.26;100.00;100451.63;5021973;28;20060;-68
2021/09/04 00:51:03;;;;;;;11.55;7.55;;;;;;;15.21;100.00;100454.81;5008383;28;20076;-69
2021/09/04 00:53:47;;;;;;;15.85;8.07;;;;;;;15.15;100.00;100454.66;5008051;28;20136;-68
2021/09/04 00:56:31;;;;;;;10.43;8.07;;;;;;;15.14;100.00;100450.31;5022001;28;20056;-69
2021/09/04 00:59:15;;;;;;;11.98;7.72;;;;;;;15.12;100.00;100453.16;5021789;28;20075;-68
2021/09/04 01:01:59;;;;;;;18.08;7.82;;;;;;;15.10;100.00;100451.66;5008073;28;20048;-68
2021/09/04 01:04:43;;;;;;;14.23;7.93;;;;;;;15.05;100.00;100449.47;5036935;28;20111;-68
2021/09/04 01:07:27;;;;;;;11.25;7.97;;;;;;;15.04;100.00;100452.31;5036818;28;20095;-69
2021/09/04 01:10:11;;;;;;;17.02;8.52;;;;;;;15.02;100.00;100448.97;5021444;28;20049;-69
2021/09/04 01:12:55;;;;;;;11.60;8.82;;;;;;;15.02;100.00;100443.59;5036461;28;20099;-68
2021/09/04 01:15:39;;;;;;;18.13;9.23;;;;;;;14.95;100.00;100443.44;5021649;28;20048;-68
2021/09/04 01:18:23;;;;;;;14.25;8.68;;;;;;;14.97;100.00;100446.78;5036441;28;20099;-69
2021/09/04 01:21:08;;;;;;;12.27;9.15;;;;;;;14.99;100.00;100452.00;5021217;28;20048;-69
2021/09/04 01:23:52;;;;;;;13.48;8.93;;;;;;;14.99;100.00;100454.69;5008094;28;20072;-69
2021/09/04 01:26:36;;;;;;;11.05;8.13;;;;;;;14.96;100.00;100455.00;5036350;28;20475;-69
2021/09/04 01:29:20;;;;;;;14.10;9.05;;;;;;;14.92;100.00;100456.34;5021211;28;20134;-68
2021/09/04 01:32:05;;;;;;;12.38;8.95;;;;;;;14.87;100.00;100445.25;5036081;28;20119;-69
2021/09/04 01:34:49;;;;;;;12.32;8.90;;;;;;;14.82;100.00;100453.00;5021538;28;20048;-68
2021/09/04 01:37:33;;;;;;;10.25;8.18;;;;;;;14.76;100.00;100459.84;5036042;28;20136;-69
2021/09/04 01:40:18;;;;;;;10.45;7.25;;;;;;;14.70;100.00;100459.69;5021262;28;20072;-69
2021/09/04 01:43:03;;;;;;;12.57;8.60;;;;;;;14.64;100.00;100450.47;5021205;28;20491;-67
2021/09/04 01:45:46;;;;;;;14.30;8.75;;;;;;;14.62;100.00;100443.56;5021133;28;20076;-69
2021/09/04 01:48:30;;;;;;;12.30;9.32;;;;;;;14.61;100.00;100444.56;5036046;28;20058;-69
2021/09/04 01:51:15;;;;;;;12.18;8.80;;;;;;;14.59;100.00;100444.72;5035864;28;20104;-69
2021/09/04 01:53:59;;;;;;;11.48;8.25;;;;;;;14.61;100.00;100449.94;5020325;28;20087;-69
2021/09/04 01:56:43;;;;;;;10.05;7.90;;;;;;;14.60;100.00;100448.28;5020851;28;20188;-69
2021/09/04 01:59:27;;;;;;;12.63;7.88;;;;;;;14.58;100.00;100451.09;5036205;28;20131;-69
2021/09/04 02:02:12;;;;;;;11.48;7.47;;;;;;;14.55;100.00;100450.59;5020633;28;20048;-69
2021/09/04 02:04:55;;;;;;;11.30;7.10;;;;;;;14.52;100.00;100445.56;5035785;28;20103;-69
2021/09/04 02:07:39;;;;;;;9.68;7.60;;;;;;;14.48;100.00;100447.72;5007030;28;20411;-68
2021/09/04 02:10:23;;;;;;;14.82;7.78;;;;;;;14.44;100.00;100443.72;5035543;28;20103;-69
2021/09/04 02:13:07;;;;;;;11.57;7.95;;;;;;;14.42;100.00;100444.88;5063400;22;20136;-66
2021/09/04 02:15:51;;;;;;;11.80;8.32;;;;;;;14.40;100.00;100442.34;5040576;28;20091;-66
2021/09/04 02:18:35;;;;;;;13.18;8.38;;;;;;;14.37;100.00;100441.84;5040387;28;20411;-65
2021/09/04 02:21:19;;;;;;;14.10;7.88;;;;;;;14.30;100.00;100438.97;5056899;28;20047;-66
2021/09/04 02:24:03;;;;;;;11.45;8.35;;;;;;;14.26;100.00;100444.84;5060195;28;20419;-66
2021/09/04 02:26:47;;;;;;;13.63;8.32;;;;;;;14.20;100.00;100440.13;5059891;28;20048;-65
2021/09/04 02:29:31;;;;;;;13.00;8.10;;;;;;;14.17;100.00;100429.75;5045700;28;20051;-66
2021/09/04 02:32:15;;;;;;;13.70;7.50;;;;;;;14.14;100.00;100430.88;5075158;28;20128;-65
2021/09/04 02:34:59;;;;;;;9.25;7.78;;;;;;;14.11;100.00;100430.34;5059933;28;20051;-65
2021/09/04 02:37:43;;;;;;;12.27;7.88;;;;;;;14.05;100.00;100437.19;5060210;28;20047;-65
2021/09/04 02:40:27;;;;;;;13.43;8.82;;;;;;;14.06;100.00;100430.00;5059680;28;20101;-66
2021/09/04 02:43:11;;;;;;;12.45;8.32;;;;;;;14.06;100.00;100425.47;5059752;28;20089;-66
2021/09/04 02:45:54;;;;;;;11.65;8.85;;;;;;;14.08;100.00;100428.81;5059824;28;20457;-66
2021/09/04 02:48:39;;;;;;;15.30;8.70;;;;;;;14.10;100.00;100439.38;5059618;28;20477;-66
2021/09/04 02:51:23;;;;;;;14.30;9.95;;;;;;;14.11;100.00;100435.69;5059659;28;20118;-66
2021/09/04 02:54:08;;;;;;;11.20;8.45;;;;;;;14.11;100.00;100423.16;5074772;28;20070;-65
2021/09/04 02:56:52;;;;;;;12.27;8.85;;;;;;;14.13;100.00;100429.19;5059254;28;20047;-65
2021/09/04 02:59:36;;;;;;;13.00;9.30;;;;;;;14.16;100.00;100428.03;5059209;28;20114;-65
2021/09/04 03:02:19;;;;;;;11.57;9.63;;;;;;;14.18;100.00;100420.69;5059222;28;20289;-65
2021/09/04 03:05:04;;;;;;;16.48;9.90;;;;;;;14.18;100.00;100423.38;5073424;28;20105;-66
2021/09/04 03:07:48;;;;;;;12.65;9.07;;;;;;;14.22;100.00;100425.56;5045182;28;20079;-66
2021/09/04 03:10:31;;;;;;;15.88;9.48;;;;;;;14.19;100.00;100427.72;5074116;28;20055;-66
2021/09/04 03:13:15;;;;;;;16.27;9.20;;;;;;;14.20;100.00;100424.84;5058745;28;20106;-66
2021/09/04 03:15:59;;;;;;;12.27;9.18;;;;;;;14.22;100.00;100427.38;5073965;28;20616;-66
2021/09/04 03:18:43;;;;;;;13.52;9.50;;;;;;;14.22;100.00;100414.84;5059062;28;20415;-66
2021/09/04 03:21:27;;;;;;;13.57;9.40;;;;;;;14.22;100.00;100422.88;5074107;28;20051;-65
2021/09/04 03:24:11;;;;;;;11.60;9.30;;;;;;;14.22;100.00;100417.53;5074036;28;20051;-66
2021/09/04 03:26:55;;;;;;;12.63;9.32;;;;;;;14.22;100.00;100424.72;5045095;28;20102;-66
2021/09/04 03:29:39;;;;;;;13.48;9.85;;;;;;;14.20;100.00;100424.84;5044758;28;20050;-66
2021/09/04 03:32:23;;;;;;;13.25;9.15;;;;;;;14.17;100.00;100424.38;5058620;28;20075;-66
2021/09/04 03:35:09;;;;;;;13.55;8.57;;;;;;;14.16;100.00;100428.03;5058729;28;20523;-65
2021/09/04 03:37:53;;;;;;;10.50;8.75;;;;;;;14.10;100.00;100428.66;5073866;28;20059;-66
2021/09/04 03:40:37;;;;;;;13.85;8.98;;;;;;;14.07;100.00;100421.78;5074135;28;20403;-66
2021/09/04 03:43:21;;;;;;;10.80;9.07;;;;;;;14.08;100.00;100422.63;5073461;28;20055;-66
2021/09/04 03:46:05;;;;;;;13.00;8.85;;;;;;;14.06;100.00;100419.28;5073502;28;20115;-66
2021/09/04 03:48:48;;;;;;;14.98;9.82;;;;;;;14.05;100.00;100429.16;5073733;28;20131;-65
2021/09/04 03:51:32;;;;;;;17.35;9.57;;;;;;;14.07;100.00;100426.31;5073292;28;20050;-66
2021/09/04 03:54:16;;;;;;;12.43;9.23;;;;;;;14.03;100.00;100423.13;5058501;28;20129;-66
2021/09/04 03:57:00;;;;;;;14.73;8.90;;;;;;;14.03;100.00;100424.94;5044307;28;20046;-65
2021/09/04 03:59:44;;;;;;;14.35;10.15;;;;;;;14.03;100.00;100433.00;5073547;28;20055;-66
2021/09/04 04:02:28;;;;;;;12.50;9.45;;;;;;;14.02;100.00;100421.44;5058112;28;20435;-65
2021/09/04 04:05:12;;;;;;;13.90;10.23;;;;;;;14.00;100.00;100417.25;5073768;28;20047;-65
2021/09/04 04:07:55;;;;;;;11.80;8.98;;;;;;;13.98;100.00;100411.22;5058113;28;20097;-66
2021/09/04 04:10:40;;;;;;;12.35;10.07;;;;;;;13.95;100.00;100414.19;5073707;28;20043;-66
2021/09/04 04:13:24;;;;;;;12.50;8.88;;;;;;;13.93;100.00;100421.56;5057777;28;20090;-65
2021/09/04 04:16:09;;;;;;;13.48;8.98;;;;;;;13.92;100.00;100426.09;5058051;28;20460;-65
2021/09/04 04:18:53;;;;;;;10.35;8.93;;;;;;;13.90;100.00;100427.25;5058144;28;20067;-65
2021/09/04 04:21:37;;;;;;;13.50;9.50;;;;;;;13.89;100.00;100425.56;5058165;28;20046;-66
2021/09/04 04:24:21;;;;;;;12.35;9.00;;;;;;;13.85;100.00;100430.41;5073028;28;20090;-66
2021/09/04 04:27:05;;;;;;;11.40;7.68;;;;;;;13.80;100.00;100429.22;5072987;28;20051;-65
2021/09/04 04:29:49;;;;;;;12.65;8.63;;;;;;;13.72;100.00;100440.75;5057874;28;20056;-66
2021/09/04 04:32:33;;;;;;;14.20;8.90;;;;;;;13.63;100.00;100433.66;5057976;28;20043;-65
2021/09/04 04:35:17;;;;;;;13.27;9.20;;;;;;;13.56;100.00;100434.47;5072844;28;20051;-66
2021/09/04 04:38:02;;;;;;;12.10;8.60;;;;;;;13.52;100.00;100438.44;5072862;28;20056;-66
2021/09/04 04:40:46;;;;;;;15.80;8.68;;;;;;;13.46;100.00;100434.56;5043924;28;20419;-66
2021/09/04 04:43:30;;;;;;;10.40;8.30;;;;;;;13.42;100.00;100448.41;5072900;28;20442;-65
2021/09/04 04:46:14;;;;;;;11.63;8.23;;;;;;;13.37;100.00;100442.72;5043747;28;20043;-66
2021/09/04 04:48:58;;;;;;;11.30;7.82;;;;;;;13.33;100.00;100446.69;5057917;28;20194;-65
2021/09/04 04:51:42;;;;;;;9.85;8.07;;;;;;;13.27;100.00;100444.66;5072657;28;20430;-65
2021/09/04 04:54:26;;;;;;;11.80;7.97;;;;;;;13.23;100.00;100448.63;5073039;28;20098;-65
2021/09/04 04:57:10;;;;;;;10.20;8.38;;;;;;;13.22;100.00;100441.59;5043720;28;20056;-65
2021/09/04 04:59:54;;;;;;;11.05;8.43;;;;;;;13.22;100.00;100450.47;5057551;28;20052;-65
2021/09/04 05:02:39;;;;;;;9.88;7.78;;;;;;;13.23;100.00;100453.97;5072864;28;20414;-66
2021/09/04 05:05:23;;;;;;;15.13;8.30;;;;;;;13.25;100.00;100452.84;5058064;28;20051;-66
2021/09/04 05:08:06;;;;;;;14.35;8.60;;;;;;;13.26;100.00;100449.16;5057688;28;20055;-65
2021/09/04 05:10:50;;;;;;;15.20;8.73;;;;;;;13.28;100.00;100451.69;5057376;28;20422;-66
2021/09/04 05:13:34;;;;;;;11.82;9.05;;;;;;;13.31;100.00;100448.69;5072708;28;20106;-66
2021/09/04 05:16:18;;;;;;;13.45;9.65;;;;;;;13.36;100.00;100459.78;5072857;28;20453;-65
2021/09/04 05:19:02;;;;;;;12.00;8.98;;;;;;;13.42;100.00;100460.00;5057388;28;20051;-65
2021/09/04 05:21:46;;;;;;;13.00;9.38;;;;;;;13.45;100.00;100462.34;5043455;28;20101;-65
2021/09/04 05:24:30;;;;;;;10.95;8.82;;;;;;;13.50;100.00;100459.19;5057504;28;20083;-65
2021/09/04 05:27:14;;;;;;;15.00;9.48;;;;;;;13.52;100.00;100450.00;5072374;28;20048;-65
2021/09/04 05:29:58;;;;;;;13.98;9.38;;;;;;;13.60;100.00;100458.09;5075849;28;20051;-66
2021/09/04 05:32:42;;;;;;;12.32;9.07;;;;;;;13.64;100.00;100451.41;5076125;28;20047;-65
2021/09/04 05:35:25;;;;;;;18.02;10.02;;;;;;;13.70;100.00;100464.19;5061082;28;20090;-65
2021/09/04 05:38:09;;;;;;;11.23;9.48;;;;;;;13.76;100.00;100458.16;5061372;28;20075;-65
2021/09/04 05:40:53;;;;;;;13.02;9.82;;;;;;;13.83;100.00;100458.38;5060964;28;20070;-65
2021/09/04 05:43:37;;;;;;;13.85;9.98;;;;;;;13.91;100.00;100461.94;5076176;28;20105;-66
2021/09/04 05:46:21;;;;;;;18.67;10.10;;;;;;;13.99;100.00;100458.44;5060686;28;20052;-66
2021/09/04 05:49:05;;;;;;;13.50;10.02;;;;;;;14.08;100.00;100469.03;5046791;28;20461;-66
2021/09/04 05:51:49;;;;;;;15.30;11.07;;;;;;;14.17;100.00;100470.78;5075848;28;20093;-66
2021/09/04 05:54:33;;;;;;;11.57;9.55;;;;;;;14.26;100.00;100471.66;5075675;28;20426;-63
2021/09/04 05:57:17;;;;;;;15.38;9.75;;;;;;;14.34;100.00;100477.03;5060704;28;20462;-66
2021/09/04 06:00:01;;;;;;;15.50;11.05;;;;;;;14.45;100.00;100476.72;5076139;28;20098;-65
2021/09/04 06:02:45;;;;;;;16.73;11.02;;;;;;;14.52;100.00;100470.56;5060355;28;20046;-66
2021/09/04 06:05:29;;;;;;;16.00;11.57;;;;;;;14.61;100.00;100468.72;5075454;28;20374;-66
2021/09/04 06:08:13;;;;;;;19.02;12.55;;;;;;;14.73;100.00;100475.44;5060525;28;20059;-66
2021/09/04 06:10:57;;;;;;;17.80;11.95;;;;;;;14.82;100.00;100469.09;5046329;28;20127;-66
2021/09/04 06:13:41;;;;;;;17.45;11.73;;;;;;;14.90;100.00;100463.72;5060381;28;20135;-66
2021/09/04 06:16:25;;;;;;;19.05;12.43;;;;;;;14.98;100.00;100463.75;5060077;28;20043;-66
2021/09/04 06:19:09;;;;;;;17.48;11.80;;;;;;;15.07;100.00;100465.41;5075210;28;20047;-66
2021/09/04 06:21:53;;;;;;;15.63;11.50;;;;;;;15.15;100.00;100466.25;5046041;28;20055;-65
2021/09/04 06:24:36;;;;;;;19.20;11.05;;;;;;;15.24;100.00;100454.50;5059966;28;20449;-65
2021/09/04 06:27:20;;;;;;;17.38;11.30;;;;;;;15.37;100.00;100464.75;5074961;28;20090;-66
2021/09/04 06:30:05;;;;;;;14.50;10.13;;;;;;;15.45;100.00;100462.06;5075306;28;20048;-66
2021/09/04 06:32:49;;;;;;;19.00;10.30;;;;;;;15.53;100.00;100467.41;5059769;28;20121;-63
2021/09/04 06:35:33;;;;;;;15.05;10.18;;;;;;;15.62;100.00;100459.16;5075158;28;20048;-66
2021/09/04 06:38:17;;;;;;;11.80;9.65;;;;;;;15.70;100.00;100465.38;5059627;28;20056;-66
2021/09/04 06:41:01;;;;;;;15.00;9.70;;;;;;;15.81;100.00;100475.75;5058519;28;20083;-66
2021/09/04 06:43:46;;;;;;;11.10;9.38;;;;;;;15.87;100.00;100466.97;5074958;28;20468;-66
2021/09/04 06:46:32;;;;;;;15.15;9.68;;;;;;;15.97;100.00;100466.78;5059457;28;20051;-66
2021/09/04 06:49:17;;;;;;;16.45;10.38;;;;;;;16.04;100.00;100465.06;5074887;28;20064;-66
2021/09/04 06:52:01;;;;;;;15.93;9.60;;;;;;;16.10;100.00;100470.59;5074481;28;20051;-66
2021/09/04 06:54:45;;;;;;;17.23;9.90;;;;;;;16.21;100.00;100467.53;5074900;28;20040;-66
2021/09/04 06:57:29;;;;;;;15.07;10.35;;;;;;;16.26;100.00;100470.50;5074767;28;20067;-66
2021/09/04 07:00:13;;;;;;;13.07;9.63;;;;;;;16.38;100.00;100471.81;5074543;28;20050;-66
2021/09/04 07:02:57;;;;;;;15.63;10.23;;;;;;;16.45;100.00;100475.50;5074554;28;20055;-66
2021/09/04 07:05:41;;;;;;;15.52;10.25;;;;;;;16.40;100.00;100479.72;5074474;28;20090;-66
2021/09/04 07:08:25;;;;;;;14.63;10.30;;;;;;;16.50;100.00;100478.47;5059172;28;20056;-66
2021/09/04 07:11:09;;;;;;;18.88;10.52;;;;;;;16.61;100.00;100485.34;5074395;28;20051;-66
2021/09/04 07:13:53;;;;;;;19.13;11.43;;;;;;;16.74;100.00;100486.44;5074415;28;20548;-66
2021/09/04 07:16:36;;;;;;;14.00;10.32;;;;;;;16.81;100.00;100487.41;5059307;28;20086;-66
2021/09/04 07:19:20;;;;;;;12.35;9.43;;;;;;;16.91;100.00;100487.16;5074001;28;20055;-66
2021/09/04 07:22:04;;;;;;;12.95;9.43;;;;;;;16.97;100.00;100487.28;5044884;28;20055;-65
2021/09/04 07:24:48;;;;;;;14.10;10.13;;;;;;;17.03;100.00;100491.09;5073904;28;20097;-66
2021/09/04 07:27:33;;;;;;;16.17;10.15;;;;;;;17.11;100.00;100494.56;5059031;28;20043;-65
2021/09/04 07:30:16;;;;;;;15.20;9.68;;;;;;;17.23;100.00;100494.97;5073781;28;20414;-66
2021/09/04 07:33:01;;;;;;;17.23;9.85;;;;;;;17.24;99.10;100493.97;5058569;28;20476;-66
2021/09/04 07:35:45;;;;;;;14.15;10.07;;;;;;;17.30;98.13;100496.75;5073687;28;20039;-66
2021/09/04 07:38:29;;;;;;;13.40;9.43;;;;;;;17.37;97.36;100494.19;5044715;28;20043;-66
2021/09/04 07:41:12;;;;;;;16.20;9.73;;;;;;;17.44;96.56;100496.00;5044564;28;20055;-66
2021/09/04 07:43:56;;;;;;;11.55;9.30;;;;;;;17.53;96.95;100492.22;5058676;28;20097;-66
2021/09/04 07:46:40;;;;;;;13.40;9.10;;;;;;;17.63;96.55;100489.25;5073430;28;20047;-66
2021/09/04 07:49:24;;;;;;;13.23;9.43;;;;;;;17.69;95.26;100494.75;5073491;28;20098;-65
2021/09/04 07:52:08;;;;;;;15.25;10.40;;;;;;;17.71;94.56;100502.66;5073149;28;20052;-66
2021/09/04 07:54:52;;;;;;;13.00;9.13;;;;;;;17.83;94.49;100502.00;5073485;28;20052;-65
2021/09/04 07:57:36;;;;;;;12.68;9.25;;;;;;;17.83;93.67;100491.22;5058501;28;20510;-65
2021/09/04 08:00:20;;;;;;;14.90;9.55;;;;;;;17.89;94.91;100495.88;5044403;28;20091;-67
2021/09/04 08:03:03;;;;;;;15.45;9.88;;;;;;;18.02;93.23;100508.72;5058335;28;20089;-65
2021/09/04 08:05:47;;;;;;;11.35;9.70;;;;;;;18.08;93.01;100503.41;5073230;28;20047;-65
2021/09/04 08:08:31;;;;;;;13.15;9.15;;;;;;;18.16;93.21;100503.31;5058265;28;20102;-65
2021/09/04 08:11:16;;;;;;;12.13;9.50;;;;;;;18.27;92.96;100508.25;5058131;28;20054;-66
2021/09/04 08:14:00;;;;;;;10.75;8.95;;;;;;;18.29;93.02;100506.22;5059907;28;20063;-63
2021/09/04 08:16:45;;;;;;;11.73;8.20;;;;;;;18.39;93.05;100499.50;5073387;28;20094;-64
2021/09/04 08:19:29;;;;;;;12.77;8.93;;;;;;;18.53;93.73;100503.19;5057969;28;20115;-65
2021/09/04 08:22:13;;;;;;;;;;;;;;;18.64;91.58;100503.56;5073634;28;20055;-65
2021/09/04 08:24:57;;;;;;;13.40;8.85;;;;;;;18.75;89.75;100504.91;5057850;28;20029;-66
2021/09/04 08:27:41;;;;;;;11.57;7.75;;;;;;;18.90;89.36;100506.53;5073289;28;20415;-65
2021/09/04 08:30:25;;;;;;;10.88;8.23;;;;;;;19.06;89.15;100508.16;5073143;28;20143;-64
2021/09/04 08:33:09;;;;;;;13.48;9.10;;;;;;;19.17;87.77;100507.66;5057912;28;20043;-65
2021/09/04 08:35:53;;;;;;;11.75;9.07;;;;;;;19.29;86.68;100517.78;5073152;28;20497;-64
2021/09/04 08:38:37;;;;;;;14.63;9.57;;;;;;;19.40;82.79;100511.84;5058067;28;20514;-65
2021/09/04 08:41:20;;;;;;;12.98;8.55;;;;;;;19.55;83.29;100511.75;5073112;28;20091;-65
2021/09/04 08:44:06;;;;;;;11.10;8.45;;;;;;;19.69;81.66;100517.06;5073060;28;20549;-65
2021/09/04 08:46:51;;;;;;;13.05;9.18;;;;;;;19.79;81.24;100514.06;5057828;28;20051;-64
2021/09/04 08:49:35;;;;;;;11.73;8.55;;;;;;;19.95;80.10;100511.88;5072759;28;20450;-65
2021/09/04 08:52:19;;;;;;;11.65;8.40;;;;;;;20.08;78.40;100505.72;5043607;28;20563;-65
2021/09/04 08:55:04;;;;;;;16.08;8.82;;;;;;;20.18;77.99;100501.63;5072988;28;20052;-65
2021/09/04 08:57:49;;;;;;;15.27;8.45;;;;;;;20.29;77.94;100511.88;5043786;28;20043;-65
2021/09/04 09:00:38;;;;;;;11.88;8.25;;;;;;;20.44;76.78;100511.75;5057803;28;20102;-65
2021/09/04 09:03:25;;;;;;;13.68;8.75;;;;;;;20.56;75.58;100520.97;5044512;28;20051;-65
2021/09/04 09:06:10;;;;;;;13.38;8.48;;;;;;;20.70;75.72;100511.84;5077208;28;20086;-65
2021/09/04 09:08:54;;;;;;;10.20;8.57;;;;;;;20.67;74.98;100513.09;5047291;28;20128;-65
2021/09/04 09:11:38;;;;;;;10.68;7.75;;;;;;;20.86;74.03;100509.66;5076298;28;20522;-63
2021/09/04 09:14:23;;;;;;;13.73;7.85;;;;;;;21.02;74.58;100511.16;5076509;28;20852;-65
2021/09/04 09:17:07;;;;;;;9.95;7.20;;;;;;;21.29;73.87;100509.09;5061648;28;20043;-65
2021/09/04 09:20:04;;;;;;;12.48;8.70;;;;;;;21.60;71.46;100500.34;5061193;28;20133;-65
2021/09/04 09:22:48;;;;;;;10.23;7.80;;;;;;;21.88;71.60;100499.09;5061386;28;20178;-65
2021/09/04 09:25:33;;;;;;;9.35;7.47;;;;;;;22.21;69.58;100509.91;5076430;28;20052;-65
2021/09/04 09:28:23;;;;;;;13.82;8.48;;;;;;;22.47;67.29;100504.38;5061378;28;20101;-65
2021/09/04 09:31:07;;;;;;;10.77;7.90;;;;;;;22.78;66.98;100501.72;5076429;28;20043;-65
2021/09/04 09:33:58;;;;;;;;;;;;;;;22.97;64.64;100493.50;5076519;28;20106;-65
2021/09/04 09:37:02;;;;;;;12.90;7.80;;;;;;;23.33;63.71;100492.84;5061117;28;19920;-65
2021/09/04 09:39:48;;;;;;;13.55;7.63;;;;;;;23.82;61.76;100496.41;5061223;28;20090;-65
2021/09/04 09:42:45;;;;;;;9.23;7.57;;;;;;;24.45;59.59;100492.38;5075885;28;20043;-65
2021/09/04 09:46:00;;;;;;;9.20;6.65;;;;;;;25.28;57.44;100496.94;5060924;28;20095;-65
2021/09/04 09:48:44;;;;;;;10.27;7.55;;;;;;;26.22;53.98;100486.66;5054592;28;20052;-65
2021/09/04 09:51:27;;;;;;;12.50;7.72;;;;;;;27.70;49.08;100485.22;5075644;28;20513;-65
2021/09/04 09:54:12;;;;;;;10.88;7.53;;;;;;;29.85;44.10;100482.34;5076048;28;20047;-65
2021/09/04 09:57:02;;;;;;;8.48;7.50;;;;;;;31.91;38.11;100481.94;5076007;28;20131;-65
2021/09/04 09:59:48;;;;;;;12.23;7.43;;;;;;;33.83;34.64;100485.97;5075974;28;20051;-66
2021/09/04 10:02:33;;;;;;;8.77;7.13;;;;;;;35.75;32.00;100475.72;5060903;28;20403;-65
2021/09/04 10:05:20;;;;;;;10.70;7.18;;;;;;;36.99;29.58;100474.34;5060138;28;20048;-66
2021/09/04 10:08:04;;;;;;;7.90;7.05;;;;;;;37.80;28.50;100471.25;5060473;28;20461;-65
2021/09/04 10:10:49;;;;;;;11.88;7.18;;;;;;;38.49;26.88;100476.06;5060425;28;20141;-65
2021/09/04 10:13:32;;;;;;;7.78;6.80;;;;;;;38.96;26.11;100469.63;5075409;28;20129;-65
2021/09/04 10:16:17;;;;;;;8.10;6.70;;;;;;;39.78;24.96;100465.56;5060111;28;20546;-65
2021/09/04 10:19:01;;;;;;;12.43;7.05;;;;;;;40.08;24.96;100464.50;5060123;28;20121;-65
2021/09/04 10:21:45;;;;;;;10.80;6.82;;;;;;;41.08;23.12;100461.50;5060204;28;20078;-65
2021/09/04 10:24:46;;;;;;;10.20;6.93;;;;;;;40.90;22.67;100457.19;5060345;28;20055;-65
2021/09/04 10:27:37;;;;;;;10.85;6.22;;;;;;;41.40;22.91;100460.75;5075201;28;20051;-65
2021/09/04 10:30:25;;;;;;;8.25;6.53;;;;;;;41.52;22.70;100460.81;5059871;28;20617;-65
2021/09/04 10:33:16;;;;;;;13.60;6.63;;;;;;;42.50;21.48;100458.75;5074900;28;20047;-65
2021/09/04 10:36:03;;;;;;;11.13;6.57;;;;;;;42.50;21.21;100453.13;5075433;28;20102;-66
2021/09/04 10:38:47;;;;;;;7.57;6.28;;;;;;;42.67;21.10;100441.66;5060212;28;20118;-66
2021/09/04 10:41:35;;;;;;;7.70;6.90;;;;;;;43.13;20.28;100443.94;5074810;28;20051;-66
2021/09/04 10:44:23;;;;;;;8.52;6.75;;;;;;;43.42;20.14;100446.41;5059585;28;20132;-66
2021/09/04 10:47:09;;;;;;;9.27;6.65;;;;;;;43.85;19.57;100447.28;5074486;28;20047;-65
2021/09/04 10:49:56;;;;;;;9.02;6.05;;;;;;;44.31;18.92;100440.03;5059896;28;20060;-66
2021/09/04 10:52:43;;;;;;;8.60;6.63;;;;;;;44.59;18.73;100435.13;5059922;28;20063;-66
2021/09/04 10:55:27;;;;;;;8.32;6.90;;;;;;;44.28;18.90;100440.78;5074517;28;20055;-66
2021/09/04 10:58:16;;;;;;;10.40;6.68;;;;;;;44.55;18.74;100437.06;5074697;28;20086;-66
2021/09/04 11:01:00;;;;;;;8.02;6.40;;;;;;;44.62;18.98;100428.75;5059187;28;20054;-66
2021/09/04 11:03:50;;;;;;;6.75;6.13;;;;;;;43.61;19.85;100430.50;5045473;28;20391;-66
2021/09/04 11:06:34;;;;;;;8.35;6.28;;;;;;;44.01;19.43;100424.81;5045073;28;20067;-66
2021/09/04 11:09:18;;;;;;;6.57;5.93;;;;;;;44.45;19.08;100423.56;5059440;28;20048;-66
2021/09/04 11:12:13;;;;;;;11.10;6.03;;;;;;;43.76;19.68;100423.31;5074058;28;20042;-66
2021/09/04 11:14:57;;;;;;;6.45;5.85;;;;;;;44.56;19.38;100413.38;5074486;28;20078;-66
2021/09/04 11:17:41;;;;;;;6.97;6.25;;;;;;;44.75;18.58;100413.41;5059012;28;20102;-66
2021/09/04 11:20:25;;;;;;;6.93;6.28;;;;;;;44.87;18.21;100414.09;5059436;28;20042;-66
2021/09/04 11:23:09;;;;;;;12.45;6.03;;;;;;;44.50;18.57;100414.81;5058912;28;20416;-66
2021/09/04 11:25:54;;;;;;;6.57;5.97;;;;;;;44.92;18.29;100410.19;5044237;28;20513;-66
2021/09/04 11:28:38;;;;;;;8.70;6.53;;;;;;;44.85;18.83;100405.22;5059081;28;20427;-65
2021/09/04 11:31:22;;;;;;;7.82;6.07;;;;;;;45.77;17.54;100402.34;5074258;28;20399;-67
2021/09/04 11:34:06;;;;;;;6.72;6.03;;;;;;;45.94;17.56;100408.31;5058937;28;20102;-66
2021/09/04 11:36:50;;;;;;;7.28;6.53;;;;;;;46.51;17.17;100405.22;5058596;28;20051;-66
2021/09/04 11:39:37;;;;;;;7.22;6.13;;;;;;;46.79;16.81;100400.84;5058544;28;20091;-66
2021/09/04 11:42:24;;;;;;;6.75;6.13;;;;;;;46.73;16.38;100391.09;5073948;28;20051;-66
2021/09/04 11:45:19;;;;;;;7.32;6.63;;;;;;;47.05;16.98;100391.53;5073569;28;20050;-66
2021/09/04 11:48:08;;;;;;;7.32;6.63;;;;;;;46.46;15.66;100399.94;5058566;28;20078;-66
2021/09/04 11:50:52;;;;;;;7.43;6.32;;;;;;;46.06;16.60;100398.84;5058722;28;20051;-66
2021/09/04 11:53:36;;;;;;;6.95;6.25;;;;;;;46.27;16.92;100400.03;5058823;28;20085;-66
2021/09/04 11:56:20;;;;;;;7.60;6.10;;;;;;;46.37;16.54;100405.84;5073862;28;20083;-66
2021/09/04 11:59:06;;;;;;;7.20;6.20;;;;;;;46.15;15.87;100397.38;5073350;28;20430;-66
2021/09/04 12:01:50;;;;;;;12.35;6.10;;;;;;;46.57;16.10;100398.91;5044087;28;20130;-67
2021/09/04 12:04:34;;;;;;;8.75;6.22;;;;;;;46.76;15.81;100386.69;5073783;28;20169;-65
2021/09/04 12:07:18;;;;;;;6.80;6.20;;;;;;;46.67;15.78;100392.63;5073405;28;20552;-65
2021/09/04 12:10:04;;;;;;;7.28;6.57;;;;;;;46.63;16.09;100385.31;5073138;28;20430;-66
2021/09/04 12:12:52;;;;;;;7.15;5.75;;;;;;;45.72;15.67;100388.53;5043865;28;20131;-67
2021/09/04 12:15:37;;;;;;;6.70;6.10;;;;;;;45.24;16.07;100383.59;5044090;28;20055;-66
2021/09/04 12:18:33;;;;;;;7.13;5.93;;;;;;;45.64;15.96;100383.97;5057871;28;20075;-67
2021/09/04 12:21:26;;;;;;;7.85;5.70;;;;;;;45.50;15.41;100380.84;5073024;28;20414;-67
2021/09/04 12:24:10;;;;;;;;;;;;;;;45.57;15.71;100376.19;5073518;28;20457;-67
2021/09/04 12:26:54;;;;;;;5.93;5.43;;;;;;;46.09;15.70;100377.16;5058261;28;19958;-67
2021/09/04 12:29:38;;;;;;;6.55;5.65;;;;;;;46.03;15.80;100371.41;5073247;28;20047;-67
2021/09/04 12:32:21;;;;;;;7.15;5.72;;;;;;;45.95;15.90;100380.91;5073169;28;20051;-67
2021/09/04 12:35:06;;;;;;;6.15;5.25;;;;;;;46.24;15.60;100373.38;5073219;28;20051;-66